Time;durP1;ratioP1;P1;durP2;ratioP2;P2;SDS_P1;SDS_P2;PMS_P1;PMS_P2;Temp;Humidity;BMP_temperature;BMP_pressure;BME280_temperature;BME280_humidity;BME280_pressure;Samples;Min_cycle;Max_cycle;Signal;HPM_P1;HPM_P2
2021/08/20 00:00:16;;;;;;;13.35;11.90;;;;;;;14.57;100.00;101450.00;5171468;28;20503;-68
2021/08/20 00:02:47;;;;;;;14.35;10.88;;;;;;;14.61;100.00;101459.31;5171434;28;20022;-68
2021/08/20 00:05:18;;;;;;;12.90;11.20;;;;;;;14.61;100.00;101454.03;5172334;28;20018;-68
2021/08/20 00:07:50;;;;;;;13.40;12.00;;;;;;;14.61;100.00;101459.31;5172089;28;20233;-68
2021/08/20 00:10:21;;;;;;;13.57;12.18;;;;;;;14.66;100.00;101453.59;5169763;28;20042;-68
2021/08/20 00:12:52;;;;;;;15.02;12.15;;;;;;;14.60;100.00;101447.91;5171053;28;20038;-68
2021/08/20 00:15:24;;;;;;;14.82;12.23;;;;;;;14.57;100.00;101448.19;5171760;28;20023;-69
2021/08/20 00:17:55;;;;;;;18.40;12.25;;;;;;;14.60;100.00;101447.91;5170341;28;20396;-69
2021/08/20 00:20:26;;;;;;;13.52;12.13;;;;;;;14.58;100.00;101444.63;5172086;28;20073;-69
2021/08/20 00:22:58;;;;;;;15.75;12.80;;;;;;;14.59;100.00;101448.06;5171796;28;20039;-69
2021/08/20 00:25:29;;;;;;;13.60;12.05;;;;;;;14.57;100.00;101450.84;5170718;28;20396;-69
2021/08/20 00:28:00;;;;;;;14.38;12.82;;;;;;;14.60;100.00;101447.91;5186850;28;20427;-69
2021/08/20 00:30:32;;;;;;;17.27;12.75;;;;;;;14.61;100.00;101456.66;5172025;28;20523;-69
2021/08/20 00:33:03;;;;;;;14.15;12.45;;;;;;;14.60;100.00;101455.00;5170464;28;20484;-69
2021/08/20 00:35:34;;;;;;;14.77;12.20;;;;;;;14.65;100.00;101457.22;5172034;28;20484;-69
2021/08/20 00:38:05;;;;;;;13.98;12.57;;;;;;;14.63;100.00;101451.25;5171047;28;20046;-69
2021/08/20 00:40:38;;;;;;;15.20;13.25;;;;;;;14.63;100.00;101448.63;5171960;28;20114;-69
2021/08/20 00:43:10;;;;;;;16.60;12.70;;;;;;;14.60;100.00;101444.47;5169906;28;20026;-69
2021/08/20 00:45:57;;;;;;;15.68;13.25;;;;;;;14.66;100.00;101446.53;5171986;28;20059;-69
2021/08/20 00:48:28;;;;;;;16.35;13.95;;;;;;;14.55;100.00;101442.25;5171230;28;20122;-69
2021/08/20 00:51:08;;;;;;;18.27;13.82;;;;;;;14.58;100.00;101438.47;5170744;28;20121;-69
2021/08/20 00:53:40;;;;;;;15.32;13.65;;;;;;;14.53;100.00;101446.00;5170125;28;20088;-69
2021/08/20 00:56:11;;;;;;;15.77;14.10;;;;;;;14.49;100.00;101437.53;5172272;28;20386;-68
2021/08/20 00:58:43;;;;;;;15.45;13.63;;;;;;;14.49;100.00;101434.03;5171518;28;20026;-69
2021/08/20 01:01:15;;;;;;;16.67;13.68;;;;;;;14.49;100.00;101434.91;5169955;28;20286;-69
2021/08/20 01:03:46;;;;;;;15.70;13.98;;;;;;;14.47;100.00;101435.97;5171159;28;20026;-69
2021/08/20 01:06:18;;;;;;;20.27;14.27;;;;;;;14.45;100.00;101430.03;5166450;28;20042;-69
2021/08/20 01:08:49;;;;;;;15.73;13.65;;;;;;;14.46;100.00;101435.13;5171990;28;20488;-69
2021/08/20 01:11:21;;;;;;;20.52;14.30;;;;;;;14.43;100.00;101430.16;5172060;28;20027;-69
2021/08/20 01:13:53;;;;;;;15.77;13.77;;;;;;;14.42;100.00;101430.28;5171237;28;20035;-69
2021/08/20 01:16:25;;;;;;;15.00;13.40;;;;;;;14.39;100.00;101431.41;5170427;28;20027;-69
2021/08/20 01:18:56;;;;;;;14.85;12.55;;;;;;;14.38;100.00;101431.56;5171086;28;20476;-69
2021/08/20 01:21:28;;;;;;;17.23;13.32;;;;;;;14.34;100.00;101428.38;5172047;28;20027;-69
2021/08/20 01:24:02;;;;;;;16.25;12.57;;;;;;;14.34;100.00;101426.56;5170814;28;20027;-69
2021/08/20 01:26:33;;;;;;;14.68;12.65;;;;;;;14.28;100.00;101421.00;5169527;28;20039;-69
2021/08/20 01:29:04;;;;;;;14.52;13.02;;;;;;;14.25;100.00;101429.22;5173497;28;20030;-69
2021/08/20 01:31:36;;;;;;;17.83;13.63;;;;;;;14.23;100.00;101431.97;5175623;28;20105;-69
2021/08/20 01:34:07;;;;;;;15.05;13.45;;;;;;;14.23;100.00;101425.88;5173120;28;20461;-69
2021/08/20 01:36:38;;;;;;;16.23;13.15;;;;;;;14.19;100.00;101427.97;5175067;28;20687;-69
2021/08/20 01:39:10;;;;;;;14.50;13.00;;;;;;;14.18;100.00;101426.28;5174054;28;20390;-69
2021/08/20 01:41:41;;;;;;;15.93;12.88;;;;;;;14.19;100.00;101424.50;5174896;28;20500;-69
2021/08/20 01:44:12;;;;;;;16.08;12.70;;;;;;;14.15;100.00;101423.94;5173367;28;20027;-69
2021/08/20 01:46:44;;;;;;;15.90;12.75;;;;;;;14.19;100.00;101425.31;5174982;28;20023;-69
2021/08/20 01:49:15;;;;;;;15.77;13.18;;;;;;;14.23;100.00;101431.16;5173851;28;20104;-69
2021/08/20 01:51:46;;;;;;;14.73;12.88;;;;;;;14.20;100.00;101426.16;5172385;28;20037;-69
2021/08/20 01:54:18;;;;;;;15.98;13.20;;;;;;;14.19;100.00;101433.22;5173892;28;20065;-69
2021/08/20 01:56:49;;;;;;;13.77;12.15;;;;;;;14.20;100.00;101429.59;5175070;28;20034;-69
2021/08/20 01:59:20;;;;;;;15.35;13.13;;;;;;;14.19;100.00;101430.59;5173130;28;20109;-69
2021/08/20 02:01:51;;;;;;;16.67;12.57;;;;;;;14.17;100.00;101429.91;5170894;28;20519;-69
2021/08/20 02:04:23;;;;;;;16.90;13.63;;;;;;;14.17;100.00;101435.19;5173969;28;20620;-69
2021/08/20 02:06:54;;;;;;;16.63;13.23;;;;;;;14.16;100.00;101430.88;5174027;28;20053;-69
2021/08/20 02:09:25;;;;;;;14.15;12.75;;;;;;;14.20;100.00;101437.50;5174580;28;20113;-69
2021/08/20 02:11:56;;;;;;;14.82;12.43;;;;;;;14.17;100.00;101427.28;5172450;28;20279;-69
2021/08/20 02:14:28;;;;;;;13.45;12.15;;;;;;;14.19;100.00;101427.97;5173791;28;20053;-69
2021/08/20 02:16:59;;;;;;;15.32;12.00;;;;;;;14.19;100.00;101432.41;5174219;28;20500;-69
2021/08/20 02:19:30;;;;;;;15.85;12.73;;;;;;;14.23;100.00;101428.50;5173900;28;20480;-69
2021/08/20 02:22:02;;;;;;;14.07;12.70;;;;;;;14.21;100.00;101436.56;5174291;28;20037;-69
2021/08/20 02:24:33;;;;;;;13.68;12.27;;;;;;;14.21;100.00;101430.47;5172980;28;20579;-69
2021/08/20 02:27:05;;;;;;;13.43;12.02;;;;;;;14.26;100.00;101428.25;5173355;28;20038;-69
2021/08/20 02:29:36;;;;;;;13.95;12.30;;;;;;;14.23;100.00;101431.16;5172677;28;20039;-69
2021/08/20 02:32:08;;;;;;;14.68;12.68;;;;;;;14.23;100.00;101426.69;5174448;28;20050;-69
2021/08/20 02:34:39;;;;;;;12.57;11.27;;;;;;;14.25;100.00;101429.22;5173355;28;20038;-69
2021/08/20 02:37:11;;;;;;;13.98;11.70;;;;;;;14.28;100.00;101434.19;5173234;28;20051;-69
2021/08/20 02:39:42;;;;;;;14.35;12.38;;;;;;;14.27;100.00;101438.63;5172393;28;20091;-68
2021/08/20 02:42:13;;;;;;;13.55;12.02;;;;;;;14.30;100.00;101426.97;5171998;28;20484;-69
2021/08/20 02:44:45;;;;;;;13.55;12.13;;;;;;;14.30;100.00;101433.06;5173409;28;20098;-69
2021/08/20 02:47:16;;;;;;;13.98;12.50;;;;;;;14.32;100.00;101441.69;5172640;28;20499;-69
2021/08/20 02:49:47;;;;;;;12.82;11.50;;;;;;;14.34;100.00;101438.91;5173400;28;20476;-69
2021/08/20 02:52:18;;;;;;;17.00;12.63;;;;;;;14.34;100.00;101431.00;5173088;28;20117;-69
2021/08/20 02:54:50;;;;;;;15.75;12.20;;;;;;;14.35;100.00;101441.38;5171935;28;20482;-68
2021/08/20 02:57:23;;;;;;;13.02;11.63;;;;;;;14.35;100.00;101436.13;5170959;28;20031;-69
2021/08/20 02:59:55;;;;;;;14.52;11.55;;;;;;;14.36;100.00;101440.44;5173151;28;20203;-69
2021/08/20 03:02:26;;;;;;;16.07;11.80;;;;;;;14.38;100.00;101437.66;5173289;28;20106;-69
2021/08/20 03:04:58;;;;;;;13.48;12.13;;;;;;;14.39;100.00;101433.22;5172727;28;20031;-68
2021/08/20 03:07:29;;;;;;;13.90;11.00;;;;;;;14.39;100.00;101430.56;5173440;28;20087;-69
2021/08/20 03:10:00;;;;;;;16.83;12.20;;;;;;;14.39;100.00;101427.94;5173255;28;20022;-69
2021/08/20 03:12:31;;;;;;;16.15;12.43;;;;;;;14.41;100.00;101426.84;5172197;28;20034;-69
2021/08/20 03:15:04;;;;;;;14.20;12.10;;;;;;;14.41;100.00;101424.19;5172247;28;20113;-69
2021/08/20 03:17:35;;;;;;;13.82;12.07;;;;;;;14.43;100.00;101426.69;5173290;28;20030;-69
2021/08/20 03:20:07;;;;;;;17.60;11.95;;;;;;;14.43;100.00;101421.41;5173730;28;20357;-69
2021/08/20 03:22:39;;;;;;;14.43;12.23;;;;;;;14.43;100.00;101424.88;5170899;28;20031;-69
2021/08/20 03:25:10;;;;;;;13.65;12.27;;;;;;;14.43;100.00;101424.03;5173351;28;20022;-69
2021/08/20 03:27:42;;;;;;;12.75;11.43;;;;;;;14.42;100.00;101419.75;5171620;28;20058;-69
2021/08/20 03:30:13;;;;;;;14.45;11.77;;;;;;;14.46;100.00;101431.69;5172416;28;20388;-69
2021/08/20 03:32:44;;;;;;;14.05;11.48;;;;;;;14.45;100.00;101422.94;5172608;28;20082;-69
2021/08/20 03:35:16;;;;;;;14.88;11.52;;;;;;;14.48;100.00;101424.47;5172128;28;20031;-69
2021/08/20 03:37:47;;;;;;;14.55;12.30;;;;;;;14.48;100.00;101414.75;5171359;28;20054;-69
2021/08/20 03:40:18;;;;;;;16.00;11.98;;;;;;;14.48;100.00;101414.75;5172503;28;20030;-69
2021/08/20 03:42:51;;;;;;;14.73;11.52;;;;;;;14.53;100.00;101417.00;5173001;28;20027;-69
2021/08/20 03:45:23;;;;;;;15.10;11.50;;;;;;;14.54;100.00;101422.09;5172475;28;20106;-69
2021/08/20 03:47:54;;;;;;;11.73;10.55;;;;;;;14.55;100.00;101417.69;5171079;28;20122;-69
2021/08/20 03:50:25;;;;;;;15.68;11.65;;;;;;;14.55;100.00;101409.78;5171817;28;20423;-69
2021/08/20 03:52:56;;;;;;;12.68;11.35;;;;;;;14.56;100.00;101414.91;5173097;28;20432;-69
2021/08/20 03:55:28;;;;;;;12.68;11.35;;;;;;;14.58;100.00;101412.13;5171203;28;20093;-69
2021/08/20 03:57:59;;;;;;;13.23;11.82;;;;;;;14.58;100.00;101417.38;5171916;28;20038;-69
2021/08/20 04:00:30;;;;;;;12.85;11.05;;;;;;;14.57;100.00;101411.28;5167485;28;20088;-69
2021/08/20 04:03:01;;;;;;;13.65;11.32;;;;;;;14.57;100.00;101415.72;5172289;28;20042;-69
2021/08/20 04:05:33;;;;;;;14.90;11.05;;;;;;;14.59;100.00;101421.72;5170888;28;20022;-69
2021/08/20 04:08:04;;;;;;;14.37;11.90;;;;;;;14.60;100.00;101418.09;5171020;28;20035;-69
2021/08/20 04:10:35;;;;;;;17.73;11.15;;;;;;;14.59;100.00;101422.53;5171476;28;20742;-69
2021/08/20 04:13:08;;;;;;;14.90;11.77;;;;;;;14.60;100.00;101418.91;5170196;28;20182;-69
2021/08/20 04:15:40;;;;;;;13.77;10.40;;;;;;;14.63;100.00;101423.09;5171690;28;20033;-69
2021/08/20 04:18:11;;;;;;;13.23;11.37;;;;;;;14.62;100.00;101417.94;5171853;28;20026;-69
2021/08/20 04:20:42;;;;;;;13.40;10.77;;;;;;;14.65;100.00;101423.75;5171370;28;20365;-69
2021/08/20 04:23:14;;;;;;;13.50;11.40;;;;;;;14.64;100.00;101419.47;5171647;28;20483;-69
2021/08/20 04:25:45;;;;;;;16.05;11.68;;;;;;;14.67;100.00;101424.47;5170560;28;20066;-69
2021/08/20 04:28:16;;;;;;;18.95;11.45;;;;;;;14.66;100.00;101422.81;5172315;28;20109;-69
2021/08/20 04:30:48;;;;;;;12.52;10.23;;;;;;;14.64;100.00;101414.19;5169839;28;20042;-69
2021/08/20 04:33:19;;;;;;;13.48;10.77;;;;;;;14.63;100.00;101417.81;5171679;28;20657;-69
2021/08/20 04:35:51;;;;;;;13.35;10.63;;;;;;;14.61;100.00;101422.38;5172212;28;20034;-69
2021/08/20 04:38:22;;;;;;;14.18;11.57;;;;;;;14.58;100.00;101415.59;5170974;28;20134;-69
2021/08/20 04:40:53;;;;;;;13.13;10.77;;;;;;;14.62;100.00;101425.84;5169449;28;20027;-69
2021/08/20 04:43:25;;;;;;;11.23;9.60;;;;;;;14.60;100.00;101426.81;5171618;28;20019;-69
2021/08/20 04:45:56;;;;;;;13.23;10.50;;;;;;;14.62;100.00;101437.22;5170364;28;20281;-69
2021/08/20 04:48:27;;;;;;;13.93;10.50;;;;;;;14.62;100.00;101434.59;5168896;28;20100;-69
2021/08/20 04:50:59;;;;;;;15.13;10.55;;;;;;;14.62;100.00;101431.94;5171973;28;20027;-69
2021/08/20 04:53:31;;;;;;;13.57;10.45;;;;;;;14.63;100.00;101438.91;5171496;28;20046;-69
2021/08/20 04:56:02;;;;;;;16.35;11.30;;;;;;;14.64;100.00;101447.66;5170393;28;20113;-69
2021/08/20 04:58:35;;;;;;;14.15;11.02;;;;;;;14.61;100.00;101443.47;5170463;28;20030;-69
2021/08/20 05:01:06;;;;;;;12.70;10.65;;;;;;;14.66;100.00;101449.19;5171952;28;20042;-69
2021/08/20 05:03:38;;;;;;;17.27;11.32;;;;;;;14.65;100.00;101452.75;5174991;28;20030;-69
2021/08/20 05:06:11;;;;;;;15.23;11.98;;;;;;;14.70;100.00;101450.56;5174609;28;20110;-69
2021/08/20 05:08:42;;;;;;;13.43;10.93;;;;;;;14.70;100.00;101450.56;5174965;28;20539;-69
2021/08/20 05:11:14;;;;;;;15.43;11.32;;;;;;;14.74;100.00;101457.22;5175000;28;20030;-68
2021/08/20 05:13:45;;;;;;;16.77;12.00;;;;;;;14.77;100.00;101456.94;5171774;28;20909;-68
2021/08/20 05:16:16;;;;;;;14.43;11.50;;;;;;;14.84;100.00;101458.00;5175683;28;20063;-69
2021/08/20 05:18:48;;;;;;;14.50;11.23;;;;;;;14.90;100.00;101458.41;5174592;28;20057;-69
2021/08/20 05:21:19;;;;;;;12.93;11.07;;;;;;;14.91;100.00;101460.06;5174603;28;20294;-69
2021/08/20 05:23:50;;;;;;;15.35;11.38;;;;;;;14.96;100.00;101463.09;5174454;28;20042;-69
2021/08/20 05:26:22;;;;;;;17.50;11.57;;;;;;;14.98;100.00;101461.16;5175619;28;20039;-69
2021/08/20 05:28:53;;;;;;;13.27;11.55;;;;;;;15.02;100.00;101463.38;5174062;28;20023;-69
2021/08/20 05:31:24;;;;;;;17.37;12.47;;;;;;;15.04;100.00;101463.25;5175389;28;20023;-68
2021/08/20 05:33:56;;;;;;;17.10;12.15;;;;;;;15.04;100.00;101466.72;5174994;28;20290;-69
2021/08/20 05:36:27;;;;;;;14.93;11.43;;;;;;;15.07;100.00;101465.56;5174292;28;20031;-69
2021/08/20 05:38:58;;;;;;;13.15;11.18;;;;;;;15.12;100.00;101463.34;5174153;28;20113;-68
2021/08/20 05:41:30;;;;;;;15.85;12.50;;;;;;;15.13;100.00;101467.63;5174865;28;20491;-69
2021/08/20 05:44:01;;;;;;;16.38;12.52;;;;;;;15.16;100.00;101467.34;5175390;28;20077;-69
2021/08/20 05:46:32;;;;;;;16.95;12.20;;;;;;;15.18;100.00;101473.31;5172087;28;20023;-69
2021/08/20 05:49:07;;;;;;;16.83;13.32;;;;;;;15.21;100.00;101473.03;5173150;28;20050;-69
2021/08/20 05:51:38;;;;;;;16.83;12.90;;;;;;;15.25;100.00;101476.22;5174547;28;20516;-68
2021/08/20 05:54:09;;;;;;;15.50;12.80;;;;;;;15.30;100.00;101477.44;5172674;28;20026;-68
2021/08/20 05:56:40;;;;;;;17.60;13.07;;;;;;;15.36;100.00;101478.66;5172783;28;20034;-68
2021/08/20 05:59:12;;;;;;;15.98;12.43;;;;;;;15.42;100.00;101479.88;5172247;28;20092;-69
2021/08/20 06:01:43;;;;;;;18.88;13.63;;;;;;;15.46;100.00;101490.03;5172225;28;20034;-68
2021/08/20 06:04:14;;;;;;;17.73;12.88;;;;;;;15.51;100.00;101481.66;5172655;28;20240;-69
2021/08/20 06:06:46;;;;;;;15.85;13.23;;;;;;;15.56;100.00;101489.97;5174343;28;20105;-69
2021/08/20 06:09:17;;;;;;;16.00;13.68;;;;;;;15.57;100.00;101487.19;5173771;28;20084;-69
2021/08/20 06:11:49;;;;;;;23.83;13.18;;;;;;;15.66;100.00;101497.88;5173590;28;20519;-69
2021/08/20 06:14:20;;;;;;;17.63;12.88;;;;;;;15.68;100.00;101499.41;5172199;28;20014;-69
2021/08/20 06:16:54;;;;;;;14.80;13.00;;;;;;;15.71;100.00;101499.09;5174244;28;20494;-69
2021/08/20 06:19:26;;;;;;;16.33;12.60;;;;;;;15.79;100.00;101504.44;5172742;28;20412;-69
2021/08/20 06:21:58;;;;;;;16.13;12.33;;;;;;;15.87;100.00;101508.16;5171315;28;20466;-69
2021/08/20 06:24:30;;;;;;;15.82;12.73;;;;;;;15.93;100.00;101508.41;5171351;28;20285;-69
2021/08/20 06:27:01;;;;;;;16.65;12.98;;;;;;;15.98;100.00;101508.78;5173391;28;20022;-69
2021/08/20 06:29:33;;;;;;;15.15;12.15;;;;;;;16.04;100.00;101510.03;5168867;28;20043;-68
2021/08/20 06:32:05;;;;;;;14.45;12.80;;;;;;;16.09;100.00;101494.53;5171807;28;20034;-69
2021/08/20 06:34:36;;;;;;;17.10;12.75;;;;;;;16.14;100.00;101502.88;5172083;28;20035;-69
2021/08/20 06:37:07;;;;;;;14.60;12.68;;;;;;;16.23;100.00;101504.59;5171619;28;20459;-68
2021/08/20 06:39:39;;;;;;;15.00;11.75;;;;;;;16.28;100.00;101504.13;5171502;28;20464;-68
2021/08/20 06:42:10;;;;;;;13.70;11.10;;;;;;;16.35;100.00;101509.66;5164748;28;20081;-68
2021/08/20 06:44:41;;;;;;;15.30;11.52;;;;;;;16.40;100.00;101516.16;5170136;28;20037;-69
2021/08/20 06:47:13;;;;;;;14.90;11.27;;;;;;;16.43;100.00;101515.00;5172521;28;20472;-69
2021/08/20 06:49:44;;;;;;;15.25;11.45;;;;;;;16.44;100.00;101514.88;5171995;28;20031;-69
2021/08/20 06:52:15;;;;;;;15.10;11.70;;;;;;;16.51;100.00;101517.72;5170957;28;20126;-68
2021/08/20 06:54:47;;;;;;;15.07;11.38;;;;;;;16.55;100.00;101521.72;5171909;28;20547;-68
2021/08/20 06:57:18;;;;;;;12.93;10.90;;;;;;;16.60;100.00;101516.81;5168530;28;20035;-68
2021/08/20 06:59:49;;;;;;;16.88;11.50;;;;;;;16.63;100.00;101521.81;5169076;28;20440;-68
2021/08/20 07:02:20;;;;;;;13.07;11.10;;;;;;;16.68;100.00;101522.19;5170058;28;20499;-68
2021/08/20 07:04:52;;;;;;;12.75;10.85;;;;;;;16.77;100.00;101525.75;5171702;28;20508;-68
2021/08/20 07:07:23;;;;;;;13.73;11.05;;;;;;;16.84;100.00;101523.31;5171736;28;20026;-68
2021/08/20 07:09:54;;;;;;;13.45;12.05;;;;;;;16.90;100.00;101522.72;5170072;28;20464;-70
2021/08/20 07:12:25;;;;;;;13.43;11.63;;;;;;;16.95;100.00;101520.41;5171716;28;20031;-68
2021/08/20 07:14:57;;;;;;;15.10;12.38;;;;;;;17.03;100.00;101516.00;5170448;28;20031;-68
2021/08/20 07:17:28;;;;;;;13.38;11.98;;;;;;;17.07;100.00;101518.34;5172513;28;20023;-68
2021/08/20 07:19:59;;;;;;;12.40;10.85;;;;;;;17.17;100.00;101519.06;5170768;28;20039;-68
2021/08/20 07:22:31;;;;;;;13.90;11.93;;;;;;;17.24;100.00;101531.53;5165288;28;20026;-69
2021/08/20 07:25:02;;;;;;;14.68;12.35;;;;;;;17.27;100.00;101525.06;5169262;28;20027;-68
2021/08/20 07:27:33;;;;;;;15.35;12.90;;;;;;;17.33;100.00;101531.56;5166978;28;20026;-69
2021/08/20 07:30:05;;;;;;;15.27;13.03;;;;;;;17.39;100.00;101523.81;5165515;28;20052;-68
2021/08/20 07:32:37;;;;;;;16.03;13.67;;;;;;;17.51;100.00;101530.50;5169427;28;20024;-68
2021/08/20 07:35:08;;;;;;;15.68;13.95;;;;;;;17.63;100.00;101525.75;5168201;28;20057;-68
2021/08/20 07:37:40;;;;;;;15.80;13.63;;;;;;;17.72;100.00;101527.44;5168438;28;20078;-68
2021/08/20 07:40:11;;;;;;;17.05;15.23;;;;;;;17.77;100.00;101532.31;5168961;28;20085;-68
2021/08/20 07:42:42;;;;;;;18.30;14.90;;;;;;;17.83;100.00;101530.81;5167654;28;20027;-68
2021/08/20 07:45:14;;;;;;;16.92;15.18;;;;;;;17.85;100.00;101534.16;5167392;28;20412;-68
2021/08/20 07:47:47;;;;;;;20.80;16.57;;;;;;;17.87;100.00;101537.44;5169852;28;20035;-68
2021/08/20 07:50:18;;;;;;;18.52;16.55;;;;;;;17.89;100.00;101524.88;5169270;28;20400;-69
2021/08/20 07:52:50;;;;;;;19.02;16.52;;;;;;;18.01;100.00;101541.31;5169718;28;20038;-68
2021/08/20 07:55:23;;;;;;;18.20;16.30;;;;;;;18.07;100.00;101535.34;5168878;28;20030;-69
2021/08/20 07:57:54;;;;;;;;;;;;;;;18.33;100.00;101527.25;5168311;28;20476;-69
2021/08/20 08:00:28;;;;;;;21.33;17.67;;;;;;;18.20;100.00;101530.41;5171070;28;19920;-69
2021/08/20 08:03:00;;;;;;;20.98;18.83;;;;;;;18.33;100.00;101533.41;5175167;28;20026;-69
2021/08/20 08:05:31;;;;;;;20.70;18.35;;;;;;;18.46;100.00;101532.94;5169994;28;20078;-69
2021/08/20 08:08:03;;;;;;;21.07;18.90;;;;;;;18.55;100.00;101542.53;5170908;28;20039;-69
2021/08/20 08:10:34;;;;;;;20.60;18.50;;;;;;;18.71;100.00;101541.75;5170602;28;20022;-69
2021/08/20 08:13:05;;;;;;;22.57;20.13;;;;;;;18.81;100.00;101549.56;5171463;28;20523;-69
2021/08/20 08:15:37;;;;;;;24.43;19.80;;;;;;;18.81;100.00;101546.91;5169450;28;20031;-68
2021/08/20 08:18:08;;;;;;;23.23;20.83;;;;;;;18.75;100.00;101547.56;5171999;28;20031;-69
2021/08/20 08:20:39;;;;;;;23.33;20.70;;;;;;;18.82;100.00;101551.19;5169543;28;20567;-68
2021/08/20 08:23:11;;;;;;;24.38;21.88;;;;;;;19.00;100.00;101545.72;5169897;28;20551;-68
2021/08/20 08:25:42;;;;;;;25.27;22.70;;;;;;;19.06;100.00;101551.19;5171358;28;20503;-68
2021/08/20 08:28:13;;;;;;;24.23;21.83;;;;;;;19.14;100.00;101537.06;5170856;28;20110;-69
2021/08/20 08:30:48;;;;;;;25.17;22.47;;;;;;;19.10;100.00;101546.38;5165077;28;20492;-69
2021/08/20 08:33:19;;;;;;;23.80;21.50;;;;;;;19.18;100.00;101549.84;5169129;28;20038;-69
2021/08/20 08:35:51;;;;;;;26.20;23.57;;;;;;;19.22;100.00;101552.16;5168342;28;20035;-69
2021/08/20 08:38:22;;;;;;;24.07;21.70;;;;;;;19.24;100.00;101553.63;5176361;28;20057;-69
2021/08/20 08:40:54;;;;;;;25.10;22.70;;;;;;;19.32;100.00;101553.63;5176006;28;20023;-69
2021/08/20 08:43:25;;;;;;;23.43;21.27;;;;;;;19.32;100.00;101542.16;5174011;28;20037;-69
2021/08/20 08:46:02;;;;;;;24.17;21.77;;;;;;;19.59;100.00;101557.69;5175571;28;20668;-68
2021/08/20 08:48:38;;;;;;;24.40;22.05;;;;;;;19.74;100.00;101562.31;5176159;28;20062;-69
2021/08/20 08:51:11;;;;;;;25.00;22.63;;;;;;;19.79;100.00;101565.28;5178285;28;20488;-69
2021/08/20 08:53:42;;;;;;;24.92;22.63;;;;;;;19.85;100.00;101562.78;5176848;28;20587;-69
2021/08/20 08:56:20;;;;;;;24.27;21.87;;;;;;;19.90;100.00;101572.88;5176108;28;20026;-69
2021/08/20 08:58:52;;;;;;;24.75;22.48;;;;;;;19.77;100.00;101564.63;5176085;28;20138;-69
2021/08/20 09:01:34;;;;;;;24.00;21.80;;;;;;;19.88;100.00;101561.56;5175917;28;20053;-69
2021/08/20 09:04:17;;;;;;;24.02;21.73;;;;;;;20.02;100.00;101558.19;5174028;28;20089;-69
2021/08/20 09:06:55;;;;;;;23.77;21.55;;;;;;;19.92;100.00;101558.38;5177123;28;20496;-69
2021/08/20 09:09:26;;;;;;;21.70;19.60;;;;;;;20.02;100.00;101557.34;5174609;28;20045;-69
2021/08/20 09:12:00;;;;;;;21.03;19.03;;;;;;;20.07;100.00;101566.44;5173994;28;20036;-69
2021/08/20 09:14:35;;;;;;;22.48;20.48;;;;;;;20.20;100.00;101554.44;5176254;28;20749;-69
2021/08/20 09:17:10;;;;;;;19.85;18.15;;;;;;;20.38;100.00;101557.63;5177795;28;20042;-69
2021/08/20 09:19:43;;;;;;;19.58;17.63;;;;;;;20.42;100.00;101562.44;5177192;28;20615;-69
2021/08/20 09:22:14;;;;;;;19.52;17.73;;;;;;;20.44;100.00;101558.75;5176293;28;20030;-69
2021/08/20 09:24:46;;;;;;;17.43;15.93;;;;;;;20.54;100.00;101549.56;5176064;28;20401;-69
2021/08/20 09:27:24;;;;;;;19.10;17.30;;;;;;;20.55;100.00;101558.38;5175178;28;20117;-69
2021/08/20 09:30:03;;;;;;;18.50;16.80;;;;;;;20.45;100.00;101563.88;5176218;28;20070;-69
2021/08/20 09:32:36;;;;;;;17.40;15.90;;;;;;;20.46;100.00;101560.25;5176616;28;20121;-69
2021/08/20 09:35:07;;;;;;;17.67;16.27;;;;;;;20.54;100.00;101552.22;5176955;28;20023;-69
2021/08/20 09:37:39;;;;;;;16.63;15.13;;;;;;;20.67;100.00;101562.25;5176147;28;20042;-69
2021/08/20 09:40:13;;;;;;;13.40;12.20;;;;;;;20.63;100.00;101555.63;5177196;28;20047;-69
2021/08/20 09:42:44;;;;;;;12.00;10.80;;;;;;;20.55;100.00;101561.84;5177002;28;20114;-69
2021/08/20 09:45:22;;;;;;;11.83;10.67;;;;;;;20.67;100.00;101567.59;5177830;28;20106;-69
2021/08/20 09:47:55;;;;;;;11.20;10.20;;;;;;;20.60;100.00;101567.47;5175882;28;20109;-69
2021/08/20 09:50:53;;;;;;;11.73;10.63;;;;;;;20.78;100.00;101571.66;5173346;28;20023;-69
2021/08/20 09:53:24;;;;;;;11.20;10.20;;;;;;;20.69;100.00;101572.75;5168965;28;20046;-69
2021/08/20 09:55:57;;;;;;;10.23;9.17;;;;;;;20.87;100.00;101568.75;5170899;28;20443;-69
2021/08/20 09:58:32;;;;;;;9.70;8.80;;;;;;;20.94;100.00;101576.84;5171667;28;20476;-69
2021/08/20 10:01:04;;;;;;;8.88;7.97;;;;;;;20.99;100.00;101573.66;5170992;28;20031;-69
2021/08/20 10:03:37;;;;;;;9.20;8.30;;;;;;;21.01;100.00;101579.63;5174100;28;20011;-69
2021/08/20 10:06:12;;;;;;;7.40;6.70;;;;;;;20.77;100.00;101583.31;5168111;28;20033;-69
2021/08/20 10:08:43;;;;;;;5.43;4.93;;;;;;;20.57;100.00;101581.16;5173393;28;20037;-69
2021/08/20 10:11:17;;;;;;;5.90;5.00;;;;;;;20.55;100.00;101590.31;5173056;28;20026;-69
2021/08/20 10:13:48;;;;;;;5.28;4.78;;;;;;;20.48;100.00;101581.34;5171595;28;20023;-69
2021/08/20 10:16:20;;;;;;;7.33;4.77;;;;;;;20.52;100.00;101586.16;5172939;28;20066;-69
2021/08/20 10:18:52;;;;;;;5.20;4.47;;;;;;;20.45;100.00;101590.50;5172750;28;20019;-69
2021/08/20 10:21:23;;;;;;;6.00;5.33;;;;;;;20.44;100.00;101580.88;5170619;28;20037;-69
2021/08/20 10:23:55;;;;;;;5.47;4.97;;;;;;;20.53;100.00;101592.31;5173565;28;20271;-69
2021/08/20 10:26:27;;;;;;;5.60;4.63;;;;;;;20.55;100.00;101585.81;5170890;28;20030;-69
2021/08/20 10:29:01;;;;;;;;;;;;;;;20.97;100.00;101581.81;5172606;28;20034;-69
2021/08/20 10:31:33;;;;;;;;;;;;;;;21.05;100.00;101583.56;5172337;28;19914;-69
2021/08/20 10:34:29;;;;;;;4.53;4.13;;;;;;;20.98;100.00;101582.63;5173145;28;20045;-69
2021/08/20 10:37:06;;;;;;;5.18;3.95;;;;;;;21.06;100.00;101578.06;5171685;28;20042;-69
2021/08/20 10:39:41;;;;;;;4.03;3.63;;;;;;;21.23;100.00;101585.91;5172061;28;20535;-69
2021/08/20 10:42:13;;;;;;;4.68;4.18;;;;;;;21.30;100.00;101578.84;5171502;28;20508;-69
2021/08/20 10:45:09;;;;;;;4.72;4.32;;;;;;;21.53;100.00;101584.94;5172662;28;20027;-69
2021/08/20 10:47:42;;;;;;;3.92;3.40;;;;;;;21.55;100.00;101579.41;5172243;28;20074;-69
2021/08/20 10:50:19;;;;;;;4.53;4.13;;;;;;;21.68;100.00;101579.59;5170917;28;20023;-69
2021/08/20 10:52:51;;;;;;;5.07;4.13;;;;;;;21.71;100.00;101583.75;5172428;28;20042;-69
2021/08/20 10:55:27;;;;;;;4.75;4.25;;;;;;;21.88;100.00;101577.16;5172379;28;20038;-69
2021/08/20 10:58:06;;;;;;;4.32;3.88;;;;;;;22.10;100.00;101580.72;5171110;28;20038;-69
2021/08/20 11:00:40;;;;;;;5.55;4.40;;;;;;;22.03;100.00;101583.31;5165433;28;20704;-69
2021/08/20 11:03:11;;;;;;;4.50;4.07;;;;;;;22.19;100.00;101579.59;5169339;28;20130;-69
2021/08/20 11:05:46;;;;;;;4.53;4.13;;;;;;;22.24;100.00;101579.06;5170457;28;20030;-69
2021/08/20 11:08:27;;;;;;;5.10;4.60;;;;;;;22.42;100.00;101579.44;5172109;28;20082;-69
2021/08/20 11:10:59;;;;;;;4.63;4.22;;;;;;;22.41;100.00;101584.97;5172436;28;20041;-69
2021/08/20 11:13:31;;;;;;;5.50;5.00;;;;;;;22.50;100.00;101576.66;5170634;28;20567;-69
2021/08/20 11:16:03;;;;;;;6.13;5.27;;;;;;;22.53;100.00;101576.25;5170212;28;20027;-69
2021/08/20 11:18:45;;;;;;;6.67;6.00;;;;;;;22.68;100.00;101575.38;5170145;28;20440;-69
2021/08/20 11:21:42;;;;;;;6.20;5.60;;;;;;;22.75;100.00;101578.94;5170963;28;20038;-69
2021/08/20 11:24:19;;;;;;;5.95;5.40;;;;;;;22.44;100.00;101587.28;5171450;28;20057;-69
2021/08/20 11:26:51;;;;;;;5.28;4.80;;;;;;;22.28;100.00;101585.69;5172923;28;20035;-69